createdAt,value
2023-01-08T00:02:49.999Z,15.37
2023-01-08T00:05:53.291Z,14.77
2023-01-08T00:08:56.459Z,16.50
2023-01-08T00:11:59.597Z,13.17
2023-01-08T00:15:04.181Z,15.37
2023-01-08T00:18:07.360Z,16.47
2023-01-08T00:21:10.804Z,18.40
2023-01-08T00:24:13.926Z,16.13
2023-01-08T00:27:17.054Z,20.43
2023-01-08T00:30:21.590Z,15.53
2023-01-08T00:33:24.760Z,20.33
2023-01-08T00:36:28.023Z,15.57
2023-01-08T00:39:31.190Z,14.43
2023-01-08T00:42:34.329Z,13.53
2023-01-08T00:45:38.873Z,15.17
2023-01-08T00:48:42.117Z,13.57
2023-01-08T00:51:45.304Z,14.43
2023-01-08T00:54:48.431Z,14.13
2023-01-08T00:57:51.614Z,17.57
2023-01-08T01:00:56.174Z,17.27
2023-01-08T01:03:59.381Z,16.50
2023-01-08T01:07:02.533Z,14.73
2023-01-08T01:10:06.479Z,12.53
2023-01-08T01:13:09.710Z,14.30
2023-01-08T01:16:14.240Z,13.60
2023-01-08T01:19:19.028Z,14.23
2023-01-08T01:22:22.147Z,14.53
2023-01-08T01:25:25.304Z,15.17
2023-01-08T01:28:28.449Z,15.60
2023-01-08T01:31:33.497Z,16.90
2023-01-08T01:34:36.781Z,15.33
2023-01-08T01:37:39.912Z,16.47
2023-01-08T01:40:43.431Z,15.30
2023-01-08T01:43:46.581Z,15.17
2023-01-08T01:46:51.609Z,15.77
2023-01-08T01:49:59.719Z,17.30
2023-01-08T01:53:06.801Z,14.93
2023-01-08T01:56:10.760Z,15.00
2023-01-08T01:59:14.735Z,14.07
2023-01-08T02:02:21.998Z,15.60
2023-01-08T02:05:33.396Z,13.63
2023-01-08T02:08:43.502Z,12.43
2023-01-08T02:12:11.541Z,12.27
2023-01-08T02:15:22.160Z,15.53
2023-01-08T02:18:32.527Z,14.47
2023-01-08T02:21:50.510Z,13.53
2023-01-08T02:24:57.452Z,16.40
2023-01-08T02:28:03.393Z,15.03
2023-01-08T02:31:08.033Z,12.53
2023-01-08T02:34:12.431Z,11.57
2023-01-08T02:37:15.769Z,14.70
2023-01-08T02:40:26.017Z,13.77
2023-01-08T02:43:37.904Z,14.90
2023-01-08T02:46:43.098Z,13.03
2023-01-08T02:49:51.868Z,13.40
2023-01-08T02:53:02.319Z,12.90
2023-01-08T02:56:09.369Z,14.73
2023-01-08T02:59:15.475Z,11.77
2023-01-08T03:02:19.041Z,11.70
2023-01-08T03:05:27.294Z,11.77
2023-01-08T03:08:31.295Z,14.77
2023-01-08T03:11:40.350Z,11.90
2023-01-08T03:14:49.019Z,13.20
2023-01-08T03:17:55.024Z,10.33
2023-01-08T03:20:58.350Z,12.63
2023-01-08T03:24:02.374Z,13.23
2023-01-08T03:27:08.124Z,12.83
2023-01-08T03:30:13.966Z,12.77
2023-01-08T03:33:19.046Z,12.30
2023-01-08T03:36:25.624Z,16.73
2023-01-08T03:39:32.416Z,12.40
2023-01-08T03:42:35.651Z,14.27
2023-01-08T03:45:46.017Z,11.90
2023-01-08T03:48:50.551Z,12.10
2023-01-08T03:51:53.702Z,12.90
2023-01-08T03:54:57.183Z,11.87
2023-01-08T03:58:00.298Z,12.83
2023-01-08T04:01:04.911Z,13.57
2023-01-08T04:04:08.385Z,11.10
2023-01-08T04:07:12.242Z,10.77
2023-01-08T04:10:15.438Z,15.37
2023-01-08T04:13:18.585Z,10.97
2023-01-08T04:16:23.145Z,11.17
2023-01-08T04:19:26.313Z,12.90
2023-01-08T04:22:29.413Z,11.83
2023-01-08T04:25:32.530Z,11.40
2023-01-08T04:28:36.051Z,11.97
2023-01-08T04:31:40.599Z,12.13
2023-01-08T04:34:43.737Z,13.80
2023-01-08T04:37:46.872Z,14.47
2023-01-08T04:40:49.984Z,14.40
2023-01-08T04:43:53.113Z,15.67
2023-01-08T04:46:57.603Z,15.73
2023-01-08T04:50:00.813Z,20.53
2023-01-08T04:53:03.952Z,20.07
2023-01-08T04:56:08.737Z,16.53
2023-01-08T04:59:11.863Z,14.30
2023-01-08T05:02:16.546Z,14.60
2023-01-08T05:05:19.837Z,16.33
2023-01-08T05:08:22.955Z,16.90
2023-01-08T05:11:26.647Z,14.63
2023-01-08T05:14:29.735Z,15.00
2023-01-08T05:17:34.255Z,16.60
2023-01-08T05:20:37.388Z,15.53
2023-01-08T05:23:40.550Z,15.67
2023-01-08T05:26:43.666Z,16.20
2023-01-08T05:29:46.765Z,15.00
2023-01-08T05:32:51.248Z,14.67
2023-01-08T05:35:54.655Z,14.23
2023-01-08T05:38:57.847Z,14.33
2023-01-08T05:42:00.942Z,16.60
2023-01-08T05:45:04.152Z,15.70
2023-01-08T05:48:09.204Z,13.60
2023-01-08T05:51:12.319Z,13.90
2023-01-08T05:54:15.524Z,12.30
2023-01-08T05:57:18.692Z,16.03
2023-01-08T06:00:21.967Z,13.90
2023-01-08T06:03:26.477Z,16.10
2023-01-08T06:06:29.672Z,15.77
2023-01-08T06:09:32.787Z,16.60
2023-01-08T06:12:35.869Z,16.90
2023-01-08T06:15:40.082Z,15.70
2023-01-08T06:18:44.728Z,16.57
2023-01-08T06:21:47.905Z,11.23
2023-01-08T06:24:51.040Z,12.40
2023-01-08T06:27:54.417Z,12.73
2023-01-08T06:30:58.967Z,13.67
2023-01-08T06:34:03.703Z,12.43
2023-01-08T06:37:06.903Z,12.00
2023-01-08T06:40:11.263Z,12.23
2023-01-08T06:43:14.481Z,14.13
2023-01-08T06:46:17.656Z,11.40
2023-01-08T06:49:22.746Z,11.00
2023-01-08T06:52:25.910Z,12.77
2023-01-08T06:55:30.220Z,11.67
2023-01-08T06:58:33.322Z,12.40
2023-01-08T07:01:36.547Z,10.10
2023-01-08T07:04:41.121Z,12.57
2023-01-08T07:07:44.257Z,13.17
2023-01-08T07:10:47.426Z,12.00
2023-01-08T07:13:50.827Z,14.80
2023-01-08T07:16:54.008Z,11.90
2023-01-08T07:19:58.494Z,13.40
2023-01-08T07:23:03.447Z,15.80
2023-01-08T07:26:08.553Z,18.80
2023-01-08T07:29:11.727Z,12.77
2023-01-08T07:32:14.845Z,15.13
2023-01-08T07:35:19.464Z,14.57
2023-01-08T07:38:22.730Z,21.47
2023-01-08T07:41:25.873Z,13.93
2023-01-08T07:44:29.074Z,16.97
2023-01-08T07:47:32.305Z,15.23
2023-01-08T07:50:39.413Z,13.07
2023-01-08T07:53:43.935Z,14.00
2023-01-08T07:56:47.324Z,17.43
2023-01-08T07:59:50.500Z,14.77
2023-01-08T08:02:53.718Z,15.00
2023-01-08T08:05:58.287Z,13.93
2023-01-08T08:09:01.419Z,13.70
2023-01-08T08:12:04.880Z,15.30
2023-01-08T08:15:09.530Z,13.60
2023-01-08T08:18:12.759Z,17.10
2023-01-08T08:21:17.291Z,12.27
2023-01-08T08:24:20.426Z,13.20
2023-01-08T08:27:24.786Z,12.83
2023-01-08T08:30:29.208Z,12.57
2023-01-08T08:33:32.499Z,10.67
2023-01-08T08:36:37.082Z,12.73
2023-01-08T08:39:40.237Z,16.83
2023-01-08T08:42:43.428Z,15.47
2023-01-08T08:45:46.840Z,15.07
2023-01-08T08:48:50.051Z,17.87
2023-01-08T08:51:54.628Z,15.40
2023-01-08T08:54:57.819Z,13.50
2023-01-08T08:58:06.354Z,16.27
2023-01-08T09:01:09.728Z,16.40
2023-01-08T09:04:12.940Z,13.80
2023-01-08T09:07:17.907Z,14.63
2023-01-08T09:10:21.272Z,15.40
2023-01-08T09:13:24.685Z,14.13
2023-01-08T09:16:27.937Z,16.13
2023-01-08T09:19:31.154Z,17.00
2023-01-08T09:22:35.696Z,17.23
2023-01-08T09:25:39.455Z,16.33
2023-01-08T09:28:42.652Z,14.10
2023-01-08T09:31:46.795Z,16.73
2023-01-08T09:34:50.064Z,18.63
2023-01-08T09:37:55.208Z,20.47
2023-01-08T09:41:04.739Z,18.30
2023-01-08T09:44:08.737Z,21.70
2023-01-08T09:47:22.386Z,16.87
2023-01-08T09:50:28.882Z,15.77
2023-01-08T09:53:34.669Z,18.03
2023-01-08T09:56:38.733Z,15.87
2023-01-08T09:59:42.235Z,14.40
2023-01-08T10:02:46.253Z,16.10
2023-01-08T10:05:49.586Z,16.70
2023-01-08T10:08:54.267Z,15.23
2023-01-08T10:12:01.556Z,16.50
2023-01-08T10:15:07.673Z,15.33
2023-01-08T10:18:14.701Z,18.40
2023-01-08T10:21:19.107Z,17.87
2023-01-08T10:24:35.676Z,15.90
2023-01-08T10:27:47.584Z,14.93
2023-01-08T10:30:52.544Z,14.33
2023-01-08T10:33:55.741Z,14.13
2023-01-08T10:36:58.916Z,15.97
2023-01-08T10:40:08.918Z,13.33
2023-01-08T10:43:16.340Z,13.37
2023-01-08T10:46:24.245Z,12.83
2023-01-08T10:49:33.392Z,12.30
2023-01-08T10:52:36.745Z,14.33
2023-01-08T10:55:41.280Z,10.90
2023-01-08T10:58:44.747Z,11.07
2023-01-08T11:01:48.865Z,12.50
2023-01-08T11:04:53.450Z,13.90
2023-01-08T11:07:59.250Z,10.60
2023-01-08T11:11:03.965Z,11.50
2023-01-08T11:14:18.132Z,10.87
2023-01-08T11:17:21.409Z,9.70
2023-01-08T11:20:29.490Z,10.00
2023-01-08T11:23:32.836Z,11.97
2023-01-08T11:26:39.801Z,8.53
2023-01-08T11:29:46.853Z,10.40
2023-01-08T11:32:54.935Z,10.10
2023-01-08T11:36:05.807Z,11.43
2023-01-08T11:39:10.719Z,12.13
2023-01-08T11:42:35.048Z,9.80
2023-01-08T11:45:49.114Z,8.00
2023-01-08T11:49:15.066Z,8.60
2023-01-08T11:52:35.017Z,8.77
2023-01-08T11:55:49.330Z,9.77
2023-01-08T11:59:07.504Z,8.60
2023-01-08T12:02:22.268Z,8.37
2023-01-08T12:05:31.651Z,8.43
2023-01-08T12:08:42.408Z,8.30
2023-01-08T12:11:52.960Z,9.93
2023-01-08T12:15:10.808Z,9.77
2023-01-08T12:18:27.317Z,7.60
2023-01-08T12:21:33.784Z,8.57
2023-01-08T12:24:53.816Z,10.30
2023-01-08T12:28:16.797Z,10.43
2023-01-08T12:31:37.854Z,8.40
2023-01-08T12:34:50.657Z,9.70
2023-01-08T12:37:58.737Z,9.03
2023-01-08T12:41:06.114Z,10.03
2023-01-08T12:44:12.645Z,8.70
2023-01-08T12:47:22.197Z,9.27
2023-01-08T12:50:47.722Z,9.13
2023-01-08T12:53:59.291Z,9.93
2023-01-08T12:57:09.381Z,9.07
2023-01-08T13:00:20.792Z,9.47
2023-01-08T13:03:28.896Z,12.10
2023-01-08T13:06:32.520Z,10.97
2023-01-08T13:09:35.745Z,12.27
2023-01-08T13:12:43.682Z,10.93
2023-01-08T13:15:46.941Z,8.93
2023-01-08T13:18:56.801Z,12.20
2023-01-08T13:22:02.184Z,8.97
2023-01-08T13:25:33.015Z,13.33
2023-01-08T13:28:44.799Z,10.30
2023-01-08T13:31:48.005Z,11.33
2023-01-08T13:35:03.374Z,9.80
2023-01-08T13:38:14.918Z,12.27
2023-01-08T13:41:28.048Z,12.43
2023-01-08T13:44:34.557Z,10.77
2023-01-08T13:47:44.171Z,14.23
2023-01-08T13:50:49.075Z,14.97
2023-01-08T13:53:52.822Z,9.87
2023-01-08T13:57:04.163Z,14.53
2023-01-08T14:00:09.885Z,12.13
2023-01-08T14:03:23.933Z,18.07
2023-01-08T14:06:31.484Z,16.17
2023-01-08T14:09:34.809Z,23.30
2023-01-08T14:12:38.096Z,14.07
2023-01-08T14:15:41.400Z,16.43
2023-01-08T14:18:45.891Z,15.00
2023-01-08T14:21:51.897Z,18.17
2023-01-08T14:24:57.592Z,13.23
2023-01-08T14:28:03.007Z,12.13
2023-01-08T14:31:06.518Z,20.20
2023-01-08T14:34:11.629Z,21.27
2023-01-08T14:37:17.658Z,15.10
2023-01-08T14:40:31.171Z,14.80
2023-01-08T14:43:36.551Z,14.10
2023-01-08T14:46:39.738Z,15.00
2023-01-08T14:49:44.741Z,14.00
2023-01-08T14:52:50.657Z,17.60
2023-01-08T14:55:57.705Z,18.70
2023-01-08T14:59:01.525Z,13.47
2023-01-08T15:02:07.232Z,12.47
2023-01-08T15:05:20.569Z,14.27
2023-01-08T15:08:27.483Z,15.07
2023-01-08T15:11:32.591Z,14.00
2023-01-08T15:14:37.148Z,13.70
2023-01-08T15:17:42.148Z,17.40
2023-01-08T15:20:46.426Z,13.20
2023-01-08T15:23:54.832Z,12.13
2023-01-08T15:26:59.087Z,11.13
2023-01-08T15:30:04.119Z,16.03
2023-01-08T15:33:09.336Z,18.80
2023-01-08T15:36:12.683Z,15.17
2023-01-08T15:39:17.344Z,11.57
2023-01-08T15:42:40.444Z,13.67
2023-01-08T15:45:45.228Z,14.07
2023-01-08T15:48:48.424Z,14.77
2023-01-08T15:51:53.214Z,16.80
2023-01-08T15:54:58.604Z,15.30
2023-01-08T15:58:01.898Z,14.63
2023-01-08T16:01:05.642Z,18.20
2023-01-08T16:04:09.353Z,15.70
2023-01-08T16:07:12.974Z,14.93
2023-01-08T16:10:19.048Z,12.80
2023-01-08T16:13:22.393Z,16.10
2023-01-08T16:16:25.678Z,17.20
2023-01-08T16:19:31.914Z,16.20
2023-01-08T16:22:35.341Z,13.83
2023-01-08T16:25:41.886Z,15.23
2023-01-08T16:28:46.005Z,18.30
2023-01-08T16:31:50.537Z,12.33
2023-01-08T16:34:55.006Z,15.00
2023-01-08T16:37:58.920Z,16.27
2023-01-08T16:41:05.838Z,13.77
2023-01-08T16:44:18.189Z,17.10
2023-01-08T16:47:22.137Z,17.60
2023-01-08T16:50:26.145Z,16.73
2023-01-08T16:53:29.993Z,15.80
2023-01-08T16:56:35.031Z,18.93
2023-01-08T16:59:38.681Z,14.73
2023-01-08T17:02:42.160Z,15.70
2023-01-08T17:05:45.944Z,15.13
2023-01-08T17:08:49.886Z,15.90
2023-01-08T17:11:55.193Z,15.40
2023-01-08T17:14:58.658Z,18.60
2023-01-08T17:18:02.457Z,15.73
2023-01-08T17:21:06.518Z,15.00
2023-01-08T17:24:10.569Z,15.70
2023-01-08T17:27:15.529Z,15.20
2023-01-08T17:30:19.127Z,21.07
2023-01-08T17:33:22.625Z,14.43
2023-01-08T17:36:27.728Z,16.87
2023-01-08T17:39:31.710Z,21.73
2023-01-08T17:42:37.026Z,19.50
2023-01-08T17:45:40.861Z,21.27
2023-01-08T17:48:47.003Z,16.20
2023-01-08T17:55:10.214Z,19.20
2023-01-08T17:58:15.859Z,15.27
2023-01-08T18:01:20.051Z,17.00
2023-01-08T18:04:23.730Z,15.27
2023-01-08T18:07:27.746Z,20.47
2023-01-08T18:10:34.047Z,15.97
2023-01-08T18:13:40.841Z,16.83
2023-01-08T18:16:45.684Z,17.80
2023-01-08T18:19:49.866Z,19.83
2023-01-08T18:22:54.395Z,22.43
2023-01-08T18:25:58.571Z,19.00
2023-01-08T18:29:06.631Z,22.23
2023-01-08T18:32:10.694Z,19.60
2023-01-08T18:35:16.024Z,19.93
2023-01-08T18:38:20.058Z,17.73
2023-01-08T18:41:41.409Z,20.43
2023-01-08T18:44:46.733Z,20.10
2023-01-08T18:47:54.788Z,18.97
2023-01-08T18:51:03.852Z,17.30
2023-01-08T18:54:08.834Z,18.13
2023-01-08T18:57:12.904Z,18.47
2023-01-08T19:00:18.979Z,16.97
2023-01-08T19:03:22.769Z,20.17
2023-01-08T19:06:27.989Z,17.83
2023-01-08T19:09:31.703Z,20.53
2023-01-08T19:12:35.553Z,20.77
2023-01-08T19:15:41.359Z,17.20
2023-01-08T19:18:48.648Z,17.40
2023-01-08T19:21:52.728Z,18.07
2023-01-08T19:24:57.379Z,13.97
2023-01-08T19:28:01.132Z,14.73
2023-01-08T19:31:06.817Z,16.03
2023-01-08T19:34:13.332Z,15.20
2023-01-08T19:37:17.617Z,18.10
2023-01-08T19:40:21.469Z,17.27
2023-01-08T19:43:42.450Z,18.33
2023-01-08T19:46:48.110Z,17.53
2023-01-08T19:49:52.008Z,18.00
2023-01-08T19:52:56.938Z,17.27
2023-01-08T19:56:05.242Z,16.80
2023-01-08T19:59:09.981Z,15.70
2023-01-08T20:02:15.432Z,22.33
2023-01-08T20:05:22.130Z,16.27
2023-01-08T20:08:25.919Z,15.03
2023-01-08T20:11:30.939Z,14.80
2023-01-08T20:14:35.691Z,14.83
2023-01-08T20:17:42.853Z,14.37
2023-01-08T20:20:48.011Z,16.70
2023-01-08T20:23:59.164Z,14.23
2023-01-08T20:27:03.106Z,11.60
2023-01-08T20:30:09.124Z,12.30
2023-01-08T20:33:17.656Z,13.07
2023-01-08T20:36:24.296Z,14.37
2023-01-08T20:39:28.352Z,13.40
2023-01-08T20:42:34.649Z,12.57
2023-01-08T20:45:42.708Z,15.00
2023-01-08T20:48:48.346Z,14.50
2023-01-08T20:51:58.438Z,11.93
2023-01-08T20:55:03.296Z,13.17
2023-01-08T20:58:06.577Z,11.67
2023-01-08T21:01:12.417Z,12.00
2023-01-08T21:04:18.244Z,13.27
2023-01-08T21:07:21.559Z,14.17
2023-01-08T21:10:25.042Z,14.00
2023-01-08T21:13:28.336Z,12.47
2023-01-08T21:16:34.879Z,18.00
2023-01-08T21:19:39.569Z,13.50
2023-01-08T21:22:43.045Z,13.53
2023-01-08T21:25:46.708Z,12.33
2023-01-08T21:28:50.027Z,12.17
2023-01-08T21:31:53.360Z,12.43
2023-01-08T21:34:57.936Z,11.70
2023-01-08T21:38:01.080Z,11.97
2023-01-08T21:41:05.643Z,12.10
2023-01-08T21:44:30.698Z,13.60
2023-01-08T21:47:33.913Z,10.50
2023-01-08T21:50:38.481Z,12.23
2023-01-08T21:53:40.684Z,12.30
2023-01-08T21:56:43.846Z,10.40
2023-01-08T21:59:49.572Z,12.40
2023-01-08T22:02:52.717Z,13.60
2023-01-08T22:06:01.139Z,13.57
2023-01-08T22:09:04.415Z,12.87
2023-01-08T22:12:08.441Z,14.03
2023-01-08T22:15:12.191Z,12.33
2023-01-08T22:18:15.390Z,12.70
2023-01-08T22:21:19.977Z,10.53
2023-01-08T22:24:23.119Z,10.47
2023-01-08T22:27:26.284Z,12.60
2023-01-08T22:30:29.382Z,9.97
2023-01-08T22:33:32.553Z,12.33
2023-01-08T22:36:37.051Z,10.90
2023-01-08T22:39:40.201Z,10.93
2023-01-08T22:42:44.249Z,12.57
2023-01-08T22:45:53.569Z,10.87
2023-01-08T22:48:56.837Z,11.77
2023-01-08T22:52:01.395Z,10.80
2023-01-08T22:55:04.700Z,10.77
2023-01-08T22:58:08.518Z,11.50
2023-01-08T23:01:13.412Z,10.53
2023-01-08T23:04:16.695Z,10.37
2023-01-08T23:07:21.985Z,11.33
2023-01-08T23:10:25.367Z,10.20
2023-01-08T23:13:28.575Z,11.70
2023-01-08T23:16:31.831Z,10.80
2023-01-08T23:19:35.087Z,10.47
2023-01-08T23:22:39.901Z,8.00
2023-01-08T23:25:43.053Z,10.07
2023-01-08T23:28:48.301Z,8.13
2023-01-08T23:31:51.493Z,9.70
2023-01-08T23:34:54.811Z,10.13
2023-01-08T23:37:59.317Z,12.40
2023-01-08T23:41:05.785Z,10.67
2023-01-08T23:44:12.144Z,8.37
2023-01-08T23:47:15.304Z,10.00
2023-01-08T23:50:18.673Z,8.27
2023-01-08T23:53:23.245Z,8.93
2023-01-08T23:56:26.763Z,10.10
2023-01-08T23:59:30.044Z,9.97
